createdAt,value
2018-10-07T00:02:20.070Z,16.08
2018-10-07T00:04:48.745Z,16.14
2018-10-07T00:07:17.572Z,16.10
2018-10-07T00:09:46.657Z,16.10
2018-10-07T00:12:16.189Z,16.19
2018-10-07T00:14:45.122Z,16.14
2018-10-07T00:17:13.983Z,16.12
2018-10-07T00:19:42.721Z,16.10
2018-10-07T00:22:11.496Z,16.07
2018-10-07T00:24:40.659Z,16.13
2018-10-07T00:27:09.292Z,16.09
2018-10-07T00:29:38.422Z,16.12
2018-10-07T00:32:12.836Z,16.15
2018-10-07T00:34:42.717Z,16.14
2018-10-07T00:37:12.250Z,16.09
2018-10-07T00:39:41.530Z,16.07
2018-10-07T00:42:10.905Z,15.93
2018-10-07T00:44:39.793Z,15.87
2018-10-07T00:47:08.496Z,15.92
2018-10-07T00:49:37.408Z,15.91
2018-10-07T00:52:07.132Z,15.95
2018-10-07T00:54:35.821Z,16.07
2018-10-07T00:57:04.461Z,16.07
2018-10-07T00:59:33.073Z,16.17
2018-10-07T01:02:02.382Z,16.14
2018-10-07T01:04:31.237Z,16.14
2018-10-07T01:07:00.400Z,16.07
2018-10-07T01:09:29.839Z,16.07
2018-10-07T01:11:58.616Z,16.04
2018-10-07T01:14:27.403Z,15.97
2018-10-07T01:16:57.436Z,15.92
2018-10-07T01:19:26.106Z,15.96
2018-10-07T01:21:54.761Z,15.97
2018-10-07T01:24:23.431Z,16.03
2018-10-07T01:26:52.053Z,16.01
2018-10-07T01:29:20.709Z,15.99
2018-10-07T01:31:49.499Z,16.03
2018-10-07T01:34:19.298Z,16.06
2018-10-07T01:36:48.898Z,16.02
2018-10-07T01:39:17.522Z,15.99
2018-10-07T01:41:46.227Z,16.03
2018-10-07T01:44:14.895Z,15.95
2018-10-07T01:46:43.481Z,15.91
2018-10-07T01:49:12.102Z,15.80
2018-10-07T01:51:41.371Z,15.74
2018-10-07T01:54:11.202Z,15.74
2018-10-07T01:56:40.201Z,15.78
2018-10-07T01:59:08.897Z,15.66
2018-10-07T02:01:38.056Z,15.63
2018-10-07T02:04:06.696Z,15.73
2018-10-07T02:06:35.792Z,15.69
2018-10-07T02:09:06.322Z,15.68
2018-10-07T02:11:35.081Z,15.71
2018-10-07T02:14:03.847Z,15.71
2018-10-07T02:16:33.312Z,15.49
2018-10-07T02:19:02.771Z,15.37
2018-10-07T02:21:32.440Z,15.42
2018-10-07T02:24:01.993Z,15.45
2018-10-07T02:26:30.722Z,15.39
2018-10-07T02:29:00.055Z,15.56
2018-10-07T02:31:29.073Z,15.66
2018-10-07T02:33:57.771Z,15.73
2018-10-07T02:36:26.397Z,15.72
2018-10-07T02:38:55.014Z,15.71
2018-10-07T02:41:23.637Z,15.72
2018-10-07T02:43:52.260Z,15.71
2018-10-07T02:46:20.877Z,15.78
2018-10-07T02:48:49.465Z,15.76
2018-10-07T02:51:18.260Z,15.78
2018-10-07T02:53:46.957Z,15.73
2018-10-07T02:56:16.856Z,15.61
2018-10-07T02:58:46.321Z,15.54
2018-10-07T03:01:15.760Z,15.48
2018-10-07T03:03:45.295Z,15.44
2018-10-07T03:06:14.220Z,15.33
2018-10-07T03:08:42.827Z,15.30
2018-10-07T03:11:11.793Z,15.12
2018-10-07T03:13:40.447Z,15.04
2018-10-07T03:16:09.082Z,14.94
2018-10-07T03:18:38.387Z,14.90
2018-10-07T03:21:08.468Z,14.92
2018-10-07T03:23:37.190Z,14.81
2018-10-07T03:26:06.049Z,14.73
2018-10-07T03:28:34.776Z,14.73
2018-10-07T03:31:03.705Z,14.63
2018-10-07T03:33:32.307Z,14.47
2018-10-07T03:36:01.368Z,14.24
2018-10-07T03:38:29.977Z,14.19
2018-10-07T03:40:58.950Z,14.12
2018-10-07T03:43:27.611Z,14.07
2018-10-07T03:45:56.289Z,14.07
2018-10-07T03:48:25.072Z,14.11
2018-10-07T03:50:54.770Z,14.11
2018-10-07T03:53:23.465Z,14.05
2018-10-07T03:55:52.536Z,13.98
2018-10-07T03:58:21.897Z,13.96
2018-10-07T04:00:50.804Z,13.96
2018-10-07T04:03:20.179Z,14.02
2018-10-07T04:05:50.101Z,14.11
2018-10-07T04:08:19.403Z,13.98
2018-10-07T04:10:48.092Z,14.00
2018-10-07T04:13:17.297Z,13.96
2018-10-07T04:15:45.912Z,13.89
2018-10-07T04:18:14.570Z,13.85
2018-10-07T04:20:44.048Z,13.74
2018-10-07T04:23:12.777Z,13.68
2018-10-07T04:25:41.801Z,13.68
2018-10-07T04:28:10.425Z,13.67
2018-10-07T04:30:39.260Z,13.67
2018-10-07T04:33:07.952Z,13.61
2018-10-07T04:35:37.357Z,13.54
2018-10-07T04:38:06.192Z,13.51
2018-10-07T04:40:36.990Z,13.52
2018-10-07T04:43:06.327Z,13.55
2018-10-07T04:45:36.064Z,13.47
2018-10-07T04:48:04.992Z,13.41
2018-10-07T04:50:33.619Z,13.28
2018-10-07T04:53:02.291Z,13.24
2018-10-07T04:55:30.905Z,13.27
2018-10-07T04:58:00.227Z,13.20
2018-10-07T05:00:28.788Z,13.25
2018-10-07T05:02:57.417Z,13.24
2018-10-07T05:05:27.196Z,13.26
2018-10-07T05:07:56.003Z,13.19
2018-10-07T05:10:53.387Z,13.19
2018-10-07T05:13:25.589Z,13.13
2018-10-07T05:15:59.095Z,13.24
2018-10-07T05:18:28.197Z,13.20
2018-10-07T05:20:57.220Z,13.09
2018-10-07T05:23:25.841Z,13.14
2018-10-07T05:25:54.556Z,13.15
2018-10-07T05:28:23.216Z,12.95
2018-10-07T05:30:51.985Z,13.02
2018-10-07T05:33:20.670Z,13.05
2018-10-07T05:35:50.281Z,13.08
2018-10-07T05:38:19.924Z,13.00
2018-10-07T05:40:48.619Z,12.90
2018-10-07T05:43:17.449Z,12.95
2018-10-07T05:45:46.073Z,12.98
2018-10-07T05:48:14.877Z,12.95
2018-10-07T05:50:44.162Z,12.92
2018-10-07T05:53:12.887Z,12.89
2018-10-07T05:55:41.804Z,12.94
2018-10-07T05:58:10.547Z,12.93
2018-10-07T06:00:39.891Z,12.92
2018-10-07T06:03:18.116Z,12.88
2018-10-07T06:05:47.323Z,12.94
2018-10-07T06:08:17.441Z,12.88
2018-10-07T06:10:46.386Z,12.84
2018-10-07T06:13:15.167Z,12.98
2018-10-07T06:15:44.300Z,13.21
2018-10-07T06:18:13.656Z,13.12
2018-10-07T06:20:42.366Z,12.98
2018-10-07T06:23:11.191Z,12.87
2018-10-07T06:25:39.838Z,12.71
2018-10-07T06:28:08.483Z,12.74
2018-10-07T06:30:37.764Z,12.76
2018-10-07T06:33:06.977Z,12.77
2018-10-07T06:35:37.518Z,12.78
2018-10-07T06:38:07.517Z,12.67
2018-10-07T06:40:36.380Z,12.68
2018-10-07T06:43:05.219Z,12.71
2018-10-07T06:45:34.162Z,12.51
2018-10-07T06:48:02.750Z,12.61
2018-10-07T06:50:31.569Z,12.58
2018-10-07T06:53:00.394Z,12.59
2018-10-07T06:55:29.131Z,12.59
2018-10-07T06:57:57.758Z,12.65
2018-10-07T07:00:27.344Z,12.76
2018-10-07T07:02:56.125Z,12.80
2018-10-07T07:05:24.920Z,12.78
2018-10-07T07:07:53.735Z,12.74
2018-10-07T07:10:22.875Z,12.79
2018-10-07T07:12:51.484Z,12.75
2018-10-07T07:15:20.672Z,12.76
2018-10-07T07:17:50.444Z,12.78
2018-10-07T07:20:20.046Z,12.79
2018-10-07T07:22:48.970Z,12.79
2018-10-07T07:25:17.559Z,12.69
2018-10-07T07:27:46.246Z,12.73
2018-10-07T07:30:14.857Z,12.74
2018-10-07T07:32:43.684Z,12.73
2018-10-07T07:35:13.015Z,12.76
2018-10-07T07:37:41.709Z,12.72
2018-10-07T07:40:10.585Z,12.74
2018-10-07T07:42:39.296Z,12.98
2018-10-07T07:45:08.451Z,13.09
2018-10-07T07:47:37.826Z,13.29
2018-10-07T07:50:06.692Z,13.44
2018-10-07T07:52:35.574Z,13.63
2018-10-07T07:55:04.400Z,13.93
2018-10-07T07:57:32.962Z,13.84
2018-10-07T08:00:01.700Z,13.62
2018-10-07T08:02:31.702Z,13.45
2018-10-07T08:05:00.416Z,13.53
2018-10-07T08:07:29.825Z,13.37
2018-10-07T08:09:58.565Z,13.48
2018-10-07T08:12:27.806Z,13.50
2018-10-07T08:14:56.414Z,13.54
2018-10-07T08:17:25.086Z,13.59
2018-10-07T08:19:53.676Z,13.49
2018-10-07T08:22:22.303Z,13.52
2018-10-07T08:24:50.974Z,13.55
2018-10-07T08:27:21.165Z,13.62
2018-10-07T08:29:50.724Z,13.79
2018-10-07T08:32:20.361Z,13.65
2018-10-07T08:34:49.036Z,13.80
2018-10-07T08:37:18.415Z,14.01
2018-10-07T08:39:47.794Z,14.32
2018-10-07T08:42:16.495Z,14.59
2018-10-07T08:44:45.189Z,14.73
2018-10-07T08:47:14.069Z,15.03
2018-10-07T08:49:42.730Z,15.25
2018-10-07T08:52:12.567Z,15.36
2018-10-07T08:54:41.194Z,15.56
2018-10-07T08:57:10.291Z,15.60
2018-10-07T08:59:39.520Z,15.60
2018-10-07T09:02:08.831Z,15.51
2018-10-07T09:04:38.240Z,15.46
2018-10-07T09:07:06.886Z,15.61
2018-10-07T09:09:36.515Z,15.76
2018-10-07T09:12:05.200Z,15.83
2018-10-07T09:14:33.873Z,15.85
2018-10-07T09:17:02.694Z,16.00
2018-10-07T09:19:31.539Z,16.05
2018-10-07T09:22:00.255Z,16.23
2018-10-07T09:24:29.796Z,16.54
2018-10-07T09:26:58.508Z,16.76
2018-10-07T09:29:28.117Z,16.85
2018-10-07T09:31:58.021Z,17.00
2018-10-07T09:34:26.806Z,17.03
2018-10-07T09:36:55.381Z,16.86
2018-10-07T09:39:24.116Z,16.72
2018-10-07T09:41:52.699Z,17.09
2018-10-07T09:44:21.880Z,17.02
2018-10-07T09:46:52.796Z,16.88
2018-10-07T09:49:21.535Z,17.01
2018-10-07T09:51:51.244Z,17.02
2018-10-07T09:54:19.930Z,17.25
2018-10-07T09:56:48.550Z,17.13
2018-10-07T09:59:17.153Z,17.11
2018-10-07T10:01:45.847Z,17.39
2018-10-07T10:04:14.548Z,17.57
2018-10-07T10:06:43.195Z,17.88
2018-10-07T10:09:12.065Z,17.83
2018-10-07T10:11:40.834Z,17.97
2018-10-07T10:14:09.902Z,17.99
2018-10-07T10:16:44.148Z,17.82
2018-10-07T10:20:03.601Z,17.88
2018-10-07T10:22:44.649Z,17.83
2018-10-07T10:25:23.031Z,17.92
2018-10-07T10:27:57.215Z,17.95
2018-10-07T10:30:36.708Z,17.76
2018-10-07T10:33:32.436Z,17.88
2018-10-07T10:36:38.129Z,17.86
2018-10-07T10:39:49.147Z,17.95
2018-10-07T10:43:32.935Z,18.19
2018-10-07T10:46:07.269Z,18.13
2018-10-07T10:48:44.920Z,18.14
2018-10-07T10:51:34.982Z,18.08
2018-10-07T10:54:17.250Z,17.69
2018-10-07T10:57:51.535Z,17.58
2018-10-07T11:00:57.017Z,18.04
2018-10-07T11:03:34.886Z,18.38
2018-10-07T11:06:20.601Z,18.39
2018-10-07T11:08:58.004Z,18.53
2018-10-07T11:11:39.433Z,18.50
2018-10-07T11:15:20.589Z,18.51
2018-10-07T11:19:00.230Z,18.39
2018-10-07T11:21:40.108Z,18.47
2018-10-07T11:24:14.941Z,18.35
2018-10-07T11:26:54.582Z,18.06
2018-10-07T11:29:34.540Z,17.83
2018-10-07T11:32:12.703Z,17.51
2018-10-07T11:34:47.562Z,17.38
2018-10-07T11:37:29.992Z,17.50
2018-10-07T11:41:12.509Z,17.78
2018-10-07T11:43:49.455Z,17.99
2018-10-07T11:48:37.199Z,18.07
2018-10-07T11:51:09.988Z,18.13
2018-10-07T11:53:47.803Z,18.13
2018-10-07T11:56:16.480Z,18.01
2018-10-07T11:58:45.053Z,18.14
2018-10-07T12:01:13.610Z,18.12
2018-10-07T12:03:42.410Z,18.15
2018-10-07T12:06:11.533Z,18.17
2018-10-07T12:08:40.720Z,18.23
2018-10-07T12:11:09.331Z,18.14
2018-10-07T12:13:37.925Z,17.99
2018-10-07T12:16:06.617Z,18.04
2018-10-07T12:18:35.778Z,18.17
2018-10-07T12:21:05.128Z,18.16
2018-10-07T12:23:33.820Z,18.30
2018-10-07T12:26:02.464Z,18.28
2018-10-07T12:28:53.141Z,18.50
2018-10-07T12:31:24.935Z,18.69
2018-10-07T12:33:54.580Z,18.74
2018-10-07T12:38:40.158Z,18.80
2018-10-07T12:41:08.749Z,18.59
2018-10-07T12:43:37.393Z,18.49
2018-10-07T12:46:06.174Z,18.51
2018-10-07T12:48:35.759Z,18.49
2018-10-07T12:51:35.036Z,18.38
2018-10-07T12:54:04.409Z,18.31
2018-10-07T12:56:32.933Z,18.17
2018-10-07T12:59:01.613Z,18.19
2018-10-07T13:01:30.271Z,18.33
2018-10-07T13:03:59.029Z,18.27
2018-10-07T13:06:27.601Z,18.40
2018-10-07T13:08:56.354Z,18.48
2018-10-07T13:11:25.105Z,18.39
2018-10-07T13:13:53.930Z,18.38
2018-10-07T13:16:23.350Z,18.43
2018-10-07T13:18:52.008Z,18.27
2018-10-07T13:21:20.653Z,18.03
2018-10-07T13:23:50.230Z,18.11
2018-10-07T13:26:19.020Z,18.22
2018-10-07T13:28:47.980Z,18.23
2018-10-07T13:31:16.778Z,18.13
2018-10-07T13:33:45.476Z,18.13
2018-10-07T13:36:14.055Z,18.12
2018-10-07T13:38:42.786Z,18.17
2018-10-07T13:41:11.393Z,18.13
2018-10-07T13:43:40.049Z,18.02
2018-10-07T13:46:09.839Z,18.06
2018-10-07T13:48:38.499Z,18.13
2018-10-07T13:51:07.220Z,18.23
2018-10-07T13:53:36.999Z,18.27
2018-10-07T13:56:06.157Z,18.28
2018-10-07T13:58:34.890Z,18.05
2018-10-07T14:01:03.444Z,17.99
2018-10-07T14:03:32.121Z,18.10
2018-10-07T14:06:00.664Z,18.37
2018-10-07T14:08:29.337Z,18.61
2018-10-07T14:10:58.147Z,18.68
2018-10-07T14:13:27.130Z,18.31
2018-10-07T14:15:55.746Z,18.17
2018-10-07T14:18:24.418Z,18.01
2018-10-07T14:20:53.094Z,17.80
2018-10-07T14:23:22.370Z,17.78
2018-10-07T14:25:51.104Z,17.71
2018-10-07T14:28:19.746Z,17.53
2018-10-07T14:30:48.328Z,17.56
2018-10-07T14:33:18.352Z,17.54
2018-10-07T14:35:47.386Z,17.51
2018-10-07T14:38:15.980Z,17.46
2018-10-07T14:40:44.545Z,17.40
2018-10-07T14:43:13.062Z,17.52
2018-10-07T14:45:42.386Z,17.60
2018-10-07T14:48:11.777Z,17.65
2018-10-07T14:50:40.384Z,17.79
2018-10-07T14:53:08.903Z,17.80
2018-10-07T14:55:38.305Z,17.91
2018-10-07T14:58:07.406Z,18.06
2018-10-07T15:00:36.490Z,18.23
2018-10-07T15:03:05.212Z,18.04
2018-10-07T15:05:34.703Z,18.08
2018-10-07T15:08:04.129Z,18.13
2018-10-07T15:10:32.789Z,17.98
2018-10-07T15:13:01.328Z,17.80
2018-10-07T15:15:30.803Z,17.69
2018-10-07T15:17:59.493Z,17.67
2018-10-07T15:20:28.382Z,17.50
2018-10-07T15:22:57.015Z,17.42
2018-10-07T15:25:26.472Z,17.20
2018-10-07T15:27:55.258Z,17.14
2018-10-07T15:30:24.322Z,16.95
2018-10-07T15:32:53.049Z,16.87
2018-10-07T15:35:21.592Z,16.81
2018-10-07T15:37:50.732Z,16.84
2018-10-07T15:40:19.259Z,16.85
2018-10-07T15:42:48.398Z,16.78
2018-10-07T15:45:17.707Z,16.80
2018-10-07T15:47:47.451Z,16.93
2018-10-07T15:50:16.124Z,16.97
2018-10-07T15:52:46.314Z,16.84
2018-10-07T15:55:15.088Z,16.85
2018-10-07T15:57:43.788Z,16.70
2018-10-07T16:00:12.493Z,16.56
2018-10-07T16:02:42.285Z,16.50
2018-10-07T16:05:10.827Z,16.57
2018-10-07T16:07:39.398Z,16.65
2018-10-07T16:10:08.044Z,16.56
2018-10-07T16:12:36.668Z,16.34
2018-10-07T16:15:05.322Z,15.99
2018-10-07T16:17:33.929Z,15.63
2018-10-07T16:20:02.490Z,15.54
2018-10-07T16:22:31.154Z,15.50
2018-10-07T16:25:00.757Z,15.54
2018-10-07T16:27:29.435Z,15.37
2018-10-07T16:29:57.972Z,15.15
2018-10-07T16:32:26.558Z,15.05
2018-10-07T16:34:55.127Z,14.94
2018-10-07T16:37:23.855Z,14.86
2018-10-07T16:39:52.576Z,14.72
2018-10-07T16:42:21.979Z,14.67
2018-10-07T16:44:50.557Z,14.59
2018-10-07T16:47:19.154Z,14.49
2018-10-07T16:49:47.987Z,14.46
2018-10-07T16:52:16.889Z,14.42
2018-10-07T16:54:45.638Z,14.50
2018-10-07T16:57:14.362Z,14.44
2018-10-07T16:59:43.535Z,14.24
2018-10-07T17:02:12.180Z,13.97
2018-10-07T17:04:40.924Z,13.60
2018-10-07T17:07:09.676Z,13.36
2018-10-07T17:09:38.518Z,13.30
2018-10-07T17:12:07.405Z,13.23
2018-10-07T17:14:36.658Z,13.13
2018-10-07T17:17:05.883Z,12.98
2018-10-07T17:19:35.047Z,12.92
2018-10-07T17:22:03.657Z,13.05
2018-10-07T17:24:32.263Z,13.04
2018-10-07T17:27:01.078Z,12.91
2018-10-07T17:29:30.331Z,13.09
2018-10-07T17:31:59.801Z,13.14
2018-10-07T17:34:28.563Z,13.23
2018-10-07T17:36:57.258Z,13.26
2018-10-07T17:39:25.907Z,13.10
2018-10-07T17:41:54.539Z,12.62
2018-10-07T17:44:23.106Z,12.22
2018-10-07T17:46:51.743Z,12.13
2018-10-07T17:49:20.361Z,11.90
2018-10-07T17:51:48.951Z,11.89
2018-10-07T17:54:17.663Z,11.92
2018-10-07T17:56:46.234Z,11.84
2018-10-07T17:59:15.070Z,11.78
2018-10-07T18:01:44.947Z,11.78
2018-10-07T18:04:13.608Z,11.82
2018-10-07T18:06:42.308Z,12.02
2018-10-07T18:09:11.686Z,12.21
2018-10-07T18:11:40.683Z,12.45
2018-10-07T18:14:09.413Z,12.25
2018-10-07T18:16:38.145Z,11.87
2018-10-07T18:19:06.947Z,11.68
2018-10-07T18:21:36.952Z,11.49
2018-10-07T18:24:05.713Z,11.28
2018-10-07T18:26:34.654Z,11.17
2018-10-07T18:29:03.492Z,11.16
2018-10-07T18:31:32.056Z,11.20
2018-10-07T18:34:00.567Z,11.22
2018-10-07T18:36:29.197Z,11.48
2018-10-07T18:38:57.908Z,11.70
2018-10-07T18:41:26.593Z,11.93
2018-10-07T18:43:56.073Z,11.97
2018-10-07T18:46:25.545Z,12.08
2018-10-07T18:48:54.326Z,11.98
2018-10-07T18:51:22.883Z,11.78
2018-10-07T18:53:51.593Z,11.51
2018-10-07T18:56:20.381Z,11.23
2018-10-07T18:58:49.269Z,10.92
2018-10-07T19:01:18.448Z,10.87
2018-10-07T19:03:48.203Z,10.88
2018-10-07T19:06:17.763Z,10.77
2018-10-07T19:08:46.413Z,10.73
2018-10-07T19:11:15.007Z,10.96
2018-10-07T19:13:43.983Z,11.37
2018-10-07T19:16:13.072Z,11.51
2018-10-07T19:18:41.710Z,11.38
2018-10-07T19:21:10.389Z,11.47
2018-10-07T19:23:39.054Z,11.39
2018-10-07T19:26:07.733Z,11.12
2018-10-07T19:28:37.126Z,10.84
2018-10-07T19:31:06.069Z,10.61
2018-10-07T19:33:35.495Z,10.64
2018-10-07T19:36:04.272Z,10.54
2018-10-07T19:38:32.854Z,10.40
2018-10-07T19:41:02.425Z,10.26
2018-10-07T19:43:31.728Z,10.46
2018-10-07T19:46:00.363Z,10.88
2018-10-07T19:48:29.209Z,11.23
2018-10-07T19:50:57.873Z,11.35
2018-10-07T19:53:26.604Z,11.27
2018-10-07T19:55:55.829Z,11.24
2018-10-07T19:58:24.343Z,11.17
2018-10-07T20:00:53.371Z,10.87
2018-10-07T20:03:22.234Z,10.42
2018-10-07T20:05:50.914Z,10.15
2018-10-07T20:08:20.087Z,9.82
2018-10-07T20:10:48.874Z,9.55
2018-10-07T20:13:17.908Z,9.58
2018-10-07T20:15:46.508Z,9.77
2018-10-07T20:18:15.892Z,10.22
2018-10-07T20:20:44.856Z,10.62
2018-10-07T20:23:14.019Z,10.91
2018-10-07T20:25:43.155Z,11.07
2018-10-07T20:28:12.171Z,10.98
2018-10-07T20:30:41.843Z,10.94
2018-10-07T20:33:11.298Z,10.94
2018-10-07T20:35:40.129Z,10.80
2018-10-07T20:38:09.404Z,10.54
2018-10-07T20:40:38.264Z,10.16
2018-10-07T20:43:08.104Z,9.89
2018-10-07T20:45:37.417Z,9.75
2018-10-07T20:48:06.503Z,9.63
2018-10-07T20:50:35.721Z,9.58
2018-10-07T20:53:04.941Z,9.74
2018-10-07T20:55:33.512Z,10.09
2018-10-07T20:58:02.235Z,10.34
2018-10-07T21:00:31.758Z,10.50
2018-10-07T21:03:01.161Z,10.53
2018-10-07T21:05:29.849Z,10.43
2018-10-07T21:07:58.577Z,10.47
2018-10-07T21:10:28.172Z,10.26
2018-10-07T21:12:58.058Z,9.77
2018-10-07T21:15:26.873Z,9.36
2018-10-07T21:17:55.528Z,9.00
2018-10-07T21:20:24.293Z,8.75
2018-10-07T21:22:53.236Z,8.77
2018-10-07T21:25:22.585Z,9.08
2018-10-07T21:27:51.201Z,9.59
2018-10-07T21:30:20.543Z,10.05
2018-10-07T21:32:49.233Z,10.41
2018-10-07T21:35:17.893Z,10.68
2018-10-07T21:37:46.709Z,10.83
2018-10-07T21:40:16.053Z,10.79
2018-10-07T21:42:45.743Z,10.67
2018-10-07T21:45:14.928Z,10.43
2018-10-07T21:47:43.738Z,10.01
2018-10-07T21:50:13.183Z,9.81
2018-10-07T21:52:41.778Z,9.64
2018-10-07T21:55:10.391Z,9.37
2018-10-07T21:57:39.709Z,9.12
2018-10-07T22:00:08.886Z,9.01
2018-10-07T22:02:37.763Z,9.33
2018-10-07T22:05:06.787Z,9.65
2018-10-07T22:07:35.541Z,9.95
2018-10-07T22:10:04.221Z,10.22
2018-10-07T22:12:33.726Z,10.28
2018-10-07T22:15:02.302Z,10.12
2018-10-07T22:17:31.257Z,10.00
2018-10-07T22:20:00.588Z,9.97
2018-10-07T22:22:29.274Z,9.57
2018-10-07T22:24:57.931Z,9.18
2018-10-07T22:27:26.752Z,8.74
2018-10-07T22:29:55.442Z,8.47
2018-10-07T22:32:24.262Z,8.30
2018-10-07T22:34:52.858Z,8.28
2018-10-07T22:37:21.717Z,8.62
2018-10-07T22:39:50.884Z,9.10
2018-10-07T22:42:20.097Z,9.41
2018-10-07T22:44:49.432Z,9.62
2018-10-07T22:47:18.136Z,9.70
2018-10-07T22:49:46.755Z,9.59
2018-10-07T22:52:15.510Z,9.46
2018-10-07T22:54:45.418Z,9.43
2018-10-07T22:57:14.838Z,9.09
2018-10-07T22:59:43.563Z,8.88
2018-10-07T23:02:12.933Z,8.67
2018-10-07T23:04:42.238Z,8.31
2018-10-07T23:07:11.856Z,8.11
2018-10-07T23:09:40.495Z,8.07
2018-10-07T23:12:09.175Z,8.36
2018-10-07T23:14:37.897Z,8.89
2018-10-07T23:17:06.455Z,9.05
2018-10-07T23:19:35.245Z,9.33
2018-10-07T23:22:03.977Z,9.46
2018-10-07T23:24:32.592Z,9.61
2018-10-07T23:27:01.271Z,9.41
2018-10-07T23:29:30.021Z,9.27
2018-10-07T23:31:58.932Z,9.24
2018-10-07T23:34:28.150Z,8.95
2018-10-07T23:36:57.222Z,8.60
2018-10-07T23:39:25.980Z,8.21
2018-10-07T23:41:54.753Z,7.99
2018-10-07T23:44:23.518Z,8.17
2018-10-07T23:46:52.285Z,8.41
2018-10-07T23:49:21.601Z,8.86
2018-10-07T23:51:51.155Z,9.18
2018-10-07T23:54:20.426Z,9.27
2018-10-07T23:56:50.872Z,9.41
2018-10-07T23:59:19.640Z,9.51
